Portada
METAR-TAF:

METAR-TAF

Aeroports :

Ormond Beach Municipal Airport

Ormond Beach, Florida, Estats Units d'Amèrica

latitud: 29-18-04N, longitud: 081-06-49W, altitud: 9 m

Observació

L'informe es va fer fa 47 minuts, a les 14:50 UTC
Vent 4 kt del Sud-Oest
Temperatura 31°C
Humitat 71%
Pressió 1020 hPa
Visibilitat: 11.3 km
Cel clar

METAR: KOMN 231450Z 22004KT 7SM CLR 31/25 A3013

Hora: 11:37 (15:37 UTC)


TAF: manca

Observacions i pronòstics meteorològics de més de 4000 aeroports (METAR i TAF).

Les estacions disponibles són els punts grocs i vermells al mapa.

Posi el ratolí al punt desitjat per veure el nom de l'estació.

Feu clic per veure les observacions i els pronòstics meteorològics.

Per canviar el mapa: feu clic els botons verds amb una creu de color negre per apropar; al botó verd amb un guió per allunyar la imatge; o en les fletxes verdes per a mapes adjacents.


METAR-TAF: